sensor_id;sensor_type;location;lat;lon;timestamp;P1;durP1;ratioP1;P2;durP2;ratioP2
15693;SDS011;7947;48.834;9.132;2023-05-23T00:00:59;24.58;;;15.75;;
15693;SDS011;7947;48.834;9.132;2023-05-23T00:04:02;22.23;;;13.75;;
15693;SDS011;7947;48.834;9.132;2023-05-23T00:07:05;27.20;;;16.10;;
15693;SDS011;7947;48.834;9.132;2023-05-23T00:10:08;31.40;;;15.95;;
15693;SDS011;7947;48.834;9.132;2023-05-23T00:13:11;29.90;;;18.02;;
15693;SDS011;7947;48.834;9.132;2023-05-23T00:16:16;29.75;;;15.73;;
15693;SDS011;7947;48.834;9.132;2023-05-23T00:19:19;26.40;;;15.80;;
15693;SDS011;7947;48.834;9.132;2023-05-23T00:22:22;22.80;;;15.23;;
15693;SDS011;7947;48.834;9.132;2023-05-23T00:25:24;28.60;;;17.95;;
15693;SDS011;7947;48.834;9.132;2023-05-23T00:28:35;29.70;;;18.08;;
15693;SDS011;7947;48.834;9.132;2023-05-23T00:31:40;30.98;;;16.45;;
15693;SDS011;7947;48.834;9.132;2023-05-23T00:34:46;23.40;;;15.27;;
15693;SDS011;7947;48.834;9.132;2023-05-23T00:37:49;32.55;;;17.88;;
15693;SDS011;7947;48.834;9.132;2023-05-23T00:40:52;28.45;;;15.68;;
15693;SDS011;7947;48.834;9.132;2023-05-23T00:43:55;30.30;;;17.38;;
15693;SDS011;7947;48.834;9.132;2023-05-23T00:47:01;26.65;;;16.25;;
15693;SDS011;7947;48.834;9.132;2023-05-23T00:50:07;29.80;;;17.00;;
15693;SDS011;7947;48.834;9.132;2023-05-23T00:53:12;28.13;;;17.17;;
15693;SDS011;7947;48.834;9.132;2023-05-23T00:56:15;29.45;;;16.55;;
15693;SDS011;7947;48.834;9.132;2023-05-23T00:59:18;31.60;;;17.77;;
15693;SDS011;7947;48.834;9.132;2023-05-23T01:02:23;31.88;;;17.95;;
15693;SDS011;7947;48.834;9.132;2023-05-23T01:05:26;35.50;;;18.60;;
15693;SDS011;7947;48.834;9.132;2023-05-23T01:08:29;29.30;;;17.52;;
15693;SDS011;7947;48.834;9.132;2023-05-23T01:11:33;29.45;;;18.48;;
15693;SDS011;7947;48.834;9.132;2023-05-23T01:14:41;35.85;;;19.70;;
15693;SDS011;7947;48.834;9.132;2023-05-23T01:17:51;31.38;;;19.92;;
15693;SDS011;7947;48.834;9.132;2023-05-23T01:21:00;39.78;;;22.08;;
15693;SDS011;7947;48.834;9.132;2023-05-23T01:27:41;33.88;;;19.52;;
15693;SDS011;7947;48.834;9.132;2023-05-23T01:30:49;32.55;;;19.75;;
15693;SDS011;7947;48.834;9.132;2023-05-23T01:33:53;39.10;;;20.05;;
15693;SDS011;7947;48.834;9.132;2023-05-23T01:36:57;36.28;;;19.75;;
15693;SDS011;7947;48.834;9.132;2023-05-23T01:40:00;34.38;;;20.17;;
15693;SDS011;7947;48.834;9.132;2023-05-23T01:43:04;37.22;;;20.35;;
15693;SDS011;7947;48.834;9.132;2023-05-23T01:46:07;37.22;;;22.42;;
15693;SDS011;7947;48.834;9.132;2023-05-23T01:49:12;37.75;;;20.88;;
15693;SDS011;7947;48.834;9.132;2023-05-23T01:52:16;36.28;;;21.40;;
15693;SDS011;7947;48.834;9.132;2023-05-23T01:55:21;38.00;;;23.13;;
15693;SDS011;7947;48.834;9.132;2023-05-23T01:58:26;39.00;;;23.05;;
15693;SDS011;7947;48.834;9.132;2023-05-23T02:01:28;42.47;;;24.85;;
15693;SDS011;7947;48.834;9.132;2023-05-23T02:04:31;37.13;;;23.02;;
15693;SDS011;7947;48.834;9.132;2023-05-23T02:07:34;46.53;;;25.30;;
15693;SDS011;7947;48.834;9.132;2023-05-23T02:10:37;41.60;;;24.27;;
15693;SDS011;7947;48.834;9.132;2023-05-23T02:13:41;41.25;;;25.10;;
15693;SDS011;7947;48.834;9.132;2023-05-23T02:16:44;46.53;;;25.58;;
15693;SDS011;7947;48.834;9.132;2023-05-23T02:19:47;40.60;;;25.17;;
15693;SDS011;7947;48.834;9.132;2023-05-23T02:22:50;41.67;;;24.75;;
15693;SDS011;7947;48.834;9.132;2023-05-23T02:25:52;45.15;;;26.08;;
15693;SDS011;7947;48.834;9.132;2023-05-23T02:28:57;41.25;;;25.83;;
15693;SDS011;7947;48.834;9.132;2023-05-23T02:31:59;42.13;;;24.15;;
15693;SDS011;7947;48.834;9.132;2023-05-23T02:35:02;45.38;;;26.60;;
15693;SDS011;7947;48.834;9.132;2023-05-23T02:38:06;41.47;;;24.20;;
15693;SDS011;7947;48.834;9.132;2023-05-23T02:41:09;39.13;;;24.67;;
15693;SDS011;7947;48.834;9.132;2023-05-23T02:44:13;38.65;;;24.45;;
15693;SDS011;7947;48.834;9.132;2023-05-23T02:47:16;44.92;;;26.77;;
15693;SDS011;7947;48.834;9.132;2023-05-23T02:50:19;42.80;;;24.95;;
15693;SDS011;7947;48.834;9.132;2023-05-23T02:53:21;44.65;;;24.67;;
15693;SDS011;7947;48.834;9.132;2023-05-23T02:56:24;40.30;;;25.27;;
15693;SDS011;7947;48.834;9.132;2023-05-23T02:59:29;43.30;;;25.85;;
15693;SDS011;7947;48.834;9.132;2023-05-23T03:02:32;44.38;;;25.52;;
15693;SDS011;7947;48.834;9.132;2023-05-23T03:05:34;42.75;;;25.77;;
15693;SDS011;7947;48.834;9.132;2023-05-23T03:08:37;40.45;;;25.45;;
15693;SDS011;7947;48.834;9.132;2023-05-23T03:11:40;43.58;;;27.05;;
15693;SDS011;7947;48.834;9.132;2023-05-23T03:14:44;41.25;;;23.30;;
15693;SDS011;7947;48.834;9.132;2023-05-23T03:17:47;45.45;;;26.23;;
15693;SDS011;7947;48.834;9.132;2023-05-23T03:20:50;35.17;;;22.02;;
15693;SDS011;7947;48.834;9.132;2023-05-23T03:23:53;37.88;;;23.67;;
15693;SDS011;7947;48.834;9.132;2023-05-23T03:26:56;39.90;;;22.02;;
15693;SDS011;7947;48.834;9.132;2023-05-23T03:30:00;37.90;;;25.38;;
15693;SDS011;7947;48.834;9.132;2023-05-23T03:33:03;37.85;;;23.70;;
15693;SDS011;7947;48.834;9.132;2023-05-23T03:36:07;37.75;;;22.25;;
15693;SDS011;7947;48.834;9.132;2023-05-23T03:39:10;39.63;;;23.85;;
15693;SDS011;7947;48.834;9.132;2023-05-23T03:42:13;37.47;;;23.88;;
15693;SDS011;7947;48.834;9.132;2023-05-23T03:45:17;33.35;;;22.52;;
15693;SDS011;7947;48.834;9.132;2023-05-23T03:48:20;37.97;;;23.50;;
15693;SDS011;7947;48.834;9.132;2023-05-23T03:51:22;37.22;;;23.85;;
15693;SDS011;7947;48.834;9.132;2023-05-23T03:54:25;36.17;;;23.38;;
15693;SDS011;7947;48.834;9.132;2023-05-23T03:57:28;36.17;;;23.98;;
15693;SDS011;7947;48.834;9.132;2023-05-23T04:00:32;41.00;;;24.42;;
15693;SDS011;7947;48.834;9.132;2023-05-23T04:03:35;38.58;;;23.23;;
15693;SDS011;7947;48.834;9.132;2023-05-23T04:06:38;36.30;;;22.85;;
15693;SDS011;7947;48.834;9.132;2023-05-23T04:09:41;32.38;;;21.73;;
15693;SDS011;7947;48.834;9.132;2023-05-23T04:12:44;32.95;;;21.60;;
15693;SDS011;7947;48.834;9.132;2023-05-23T04:15:49;37.53;;;23.88;;
15693;SDS011;7947;48.834;9.132;2023-05-23T04:18:53;35.10;;;22.63;;
15693;SDS011;7947;48.834;9.132;2023-05-23T04:21:56;37.17;;;22.35;;
15693;SDS011;7947;48.834;9.132;2023-05-23T04:24:59;39.38;;;23.77;;
15693;SDS011;7947;48.834;9.132;2023-05-23T04:28:02;33.92;;;21.73;;
15693;SDS011;7947;48.834;9.132;2023-05-23T04:31:07;37.05;;;23.73;;
15693;SDS011;7947;48.834;9.132;2023-05-23T04:34:10;35.38;;;23.67;;
15693;SDS011;7947;48.834;9.132;2023-05-23T04:37:13;33.10;;;21.85;;
15693;SDS011;7947;48.834;9.132;2023-05-23T04:40:16;34.80;;;21.63;;
15693;SDS011;7947;48.834;9.132;2023-05-23T04:43:18;33.03;;;21.88;;
15693;SDS011;7947;48.834;9.132;2023-05-23T04:46:23;33.63;;;23.45;;
15693;SDS011;7947;48.834;9.132;2023-05-23T04:49:27;36.00;;;23.27;;
15693;SDS011;7947;48.834;9.132;2023-05-23T04:52:30;37.30;;;21.73;;
15693;SDS011;7947;48.834;9.132;2023-05-23T04:55:35;31.70;;;21.45;;
15693;SDS011;7947;48.834;9.132;2023-05-23T04:58:38;31.55;;;22.42;;
15693;SDS011;7947;48.834;9.132;2023-05-23T05:01:43;33.58;;;21.85;;
15693;SDS011;7947;48.834;9.132;2023-05-23T05:04:46;39.47;;;23.38;;
15693;SDS011;7947;48.834;9.132;2023-05-23T05:07:49;33.30;;;21.67;;
15693;SDS011;7947;48.834;9.132;2023-05-23T05:10:53;33.22;;;21.85;;
15693;SDS011;7947;48.834;9.132;2023-05-23T05:13:56;31.02;;;19.48;;
15693;SDS011;7947;48.834;9.132;2023-05-23T05:17:00;30.85;;;22.17;;
15693;SDS011;7947;48.834;9.132;2023-05-23T05:20:04;32.45;;;22.27;;
15693;SDS011;7947;48.834;9.132;2023-05-23T05:23:09;28.15;;;19.45;;
15693;SDS011;7947;48.834;9.132;2023-05-23T05:26:12;30.27;;;21.40;;
15693;SDS011;7947;48.834;9.132;2023-05-23T05:29:15;34.03;;;22.48;;
15693;SDS011;7947;48.834;9.132;2023-05-23T05:32:19;31.02;;;21.40;;
15693;SDS011;7947;48.834;9.132;2023-05-23T05:35:22;31.70;;;20.30;;
15693;SDS011;7947;48.834;9.132;2023-05-23T05:38:25;34.88;;;22.67;;
15693;SDS011;7947;48.834;9.132;2023-05-23T05:41:28;31.30;;;21.27;;
15693;SDS011;7947;48.834;9.132;2023-05-23T05:44:31;30.77;;;21.55;;
15693;SDS011;7947;48.834;9.132;2023-05-23T05:47:37;30.88;;;20.52;;
15693;SDS011;7947;48.834;9.132;2023-05-23T05:50:40;32.38;;;21.40;;
15693;SDS011;7947;48.834;9.132;2023-05-23T05:53:45;27.75;;;20.48;;
15693;SDS011;7947;48.834;9.132;2023-05-23T05:56:49;31.42;;;21.25;;
15693;SDS011;7947;48.834;9.132;2023-05-23T05:59:52;32.95;;;23.15;;
15693;SDS011;7947;48.834;9.132;2023-05-23T06:02:57;29.95;;;20.15;;
15693;SDS011;7947;48.834;9.132;2023-05-23T06:06:00;28.88;;;20.70;;
15693;SDS011;7947;48.834;9.132;2023-05-23T06:09:02;34.13;;;23.83;;
15693;SDS011;7947;48.834;9.132;2023-05-23T06:12:05;35.47;;;22.73;;
15693;SDS011;7947;48.834;9.132;2023-05-23T06:15:09;32.40;;;22.25;;
15693;SDS011;7947;48.834;9.132;2023-05-23T06:18:15;30.13;;;22.77;;
15693;SDS011;7947;48.834;9.132;2023-05-23T06:21:17;28.63;;;21.33;;
15693;SDS011;7947;48.834;9.132;2023-05-23T06:24:20;33.75;;;21.67;;
15693;SDS011;7947;48.834;9.132;2023-05-23T06:27:23;33.55;;;22.95;;
15693;SDS011;7947;48.834;9.132;2023-05-23T06:30:26;30.60;;;19.65;;
15693;SDS011;7947;48.834;9.132;2023-05-23T06:33:31;27.75;;;20.27;;
15693;SDS011;7947;48.834;9.132;2023-05-23T06:36:34;32.75;;;22.40;;
15693;SDS011;7947;48.834;9.132;2023-05-23T06:39:36;30.80;;;20.50;;
15693;SDS011;7947;48.834;9.132;2023-05-23T06:42:39;34.55;;;22.27;;
15693;SDS011;7947;48.834;9.132;2023-05-23T06:45:44;27.73;;;20.92;;
15693;SDS011;7947;48.834;9.132;2023-05-23T06:48:49;30.35;;;21.42;;
15693;SDS011;7947;48.834;9.132;2023-05-23T06:52:12;31.27;;;21.20;;
15693;SDS011;7947;48.834;9.132;2023-05-23T06:55:15;30.00;;;20.27;;
15693;SDS011;7947;48.834;9.132;2023-05-23T06:58:20;28.83;;;20.20;;
15693;SDS011;7947;48.834;9.132;2023-05-23T07:01:25;31.48;;;20.58;;
15693;SDS011;7947;48.834;9.132;2023-05-23T07:04:29;24.13;;;18.70;;
15693;SDS011;7947;48.834;9.132;2023-05-23T07:07:32;24.85;;;17.25;;
15693;SDS011;7947;48.834;9.132;2023-05-23T07:10:35;25.25;;;16.92;;
15693;SDS011;7947;48.834;9.132;2023-05-23T07:13:39;22.35;;;16.88;;
15693;SDS011;7947;48.834;9.132;2023-05-23T07:16:42;24.55;;;17.20;;
15693;SDS011;7947;48.834;9.132;2023-05-23T07:19:46;19.52;;;15.15;;
15693;SDS011;7947;48.834;9.132;2023-05-23T07:22:49;19.02;;;14.75;;
15693;SDS011;7947;48.834;9.132;2023-05-23T07:25:53;22.35;;;14.38;;
15693;SDS011;7947;48.834;9.132;2023-05-23T07:29:03;18.17;;;13.15;;
15693;SDS011;7947;48.834;9.132;2023-05-23T07:32:06;21.70;;;15.85;;
15693;SDS011;7947;48.834;9.132;2023-05-23T07:35:10;18.88;;;14.75;;
15693;SDS011;7947;48.834;9.132;2023-05-23T07:38:13;20.08;;;16.02;;
15693;SDS011;7947;48.834;9.132;2023-05-23T07:41:16;23.33;;;16.42;;
15693;SDS011;7947;48.834;9.132;2023-05-23T07:44:19;21.92;;;16.58;;
15693;SDS011;7947;48.834;9.132;2023-05-23T07:47:25;21.63;;;16.92;;
15693;SDS011;7947;48.834;9.132;2023-05-23T07:50:29;21.58;;;17.00;;
15693;SDS011;7947;48.834;9.132;2023-05-23T07:53:32;18.52;;;15.35;;
15693;SDS011;7947;48.834;9.132;2023-05-23T07:56:41;21.30;;;14.48;;
15693;SDS011;7947;48.834;9.132;2023-05-23T07:59:44;18.45;;;14.20;;
15693;SDS011;7947;48.834;9.132;2023-05-23T08:02:46;17.58;;;13.40;;
15693;SDS011;7947;48.834;9.132;2023-05-23T08:05:51;16.60;;;12.77;;
15693;SDS011;7947;48.834;9.132;2023-05-23T08:08:54;17.42;;;13.35;;
15693;SDS011;7947;48.834;9.132;2023-05-23T08:11:57;16.45;;;13.30;;
15693;SDS011;7947;48.834;9.132;2023-05-23T08:15:06;17.58;;;12.90;;
15693;SDS011;7947;48.834;9.132;2023-05-23T08:18:10;17.13;;;13.07;;
15693;SDS011;7947;48.834;9.132;2023-05-23T08:21:14;15.10;;;12.05;;
15693;SDS011;7947;48.834;9.132;2023-05-23T08:24:17;17.05;;;12.05;;
15693;SDS011;7947;48.834;9.132;2023-05-23T08:27:20;17.50;;;12.35;;
15693;SDS011;7947;48.834;9.132;2023-05-23T08:30:23;15.93;;;12.40;;
15693;SDS011;7947;48.834;9.132;2023-05-23T08:33:26;15.38;;;11.77;;
15693;SDS011;7947;48.834;9.132;2023-05-23T08:36:30;17.58;;;12.20;;
15693;SDS011;7947;48.834;9.132;2023-05-23T08:39:34;14.20;;;11.05;;
15693;SDS011;7947;48.834;9.132;2023-05-23T08:42:37;14.80;;;10.82;;
15693;SDS011;7947;48.834;9.132;2023-05-23T08:45:40;15.27;;;10.55;;
15693;SDS011;7947;48.834;9.132;2023-05-23T08:48:45;12.00;;;9.65;;
15693;SDS011;7947;48.834;9.132;2023-05-23T08:51:56;14.10;;;11.07;;
15693;SDS011;7947;48.834;9.132;2023-05-23T08:55:04;14.15;;;10.25;;
15693;SDS011;7947;48.834;9.132;2023-05-23T08:58:08;16.17;;;11.07;;
15693;SDS011;7947;48.834;9.132;2023-05-23T09:01:11;17.33;;;12.48;;
15693;SDS011;7947;48.834;9.132;2023-05-23T09:04:14;15.85;;;11.80;;
15693;SDS011;7947;48.834;9.132;2023-05-23T09:07:19;13.13;;;10.15;;
15693;SDS011;7947;48.834;9.132;2023-05-23T09:10:22;13.27;;;10.20;;
15693;SDS011;7947;48.834;9.132;2023-05-23T09:13:25;12.52;;;10.43;;
15693;SDS011;7947;48.834;9.132;2023-05-23T09:16:31;13.65;;;10.35;;
15693;SDS011;7947;48.834;9.132;2023-05-23T09:19:39;13.13;;;9.63;;
15693;SDS011;7947;48.834;9.132;2023-05-23T09:22:45;11.90;;;9.43;;
15693;SDS011;7947;48.834;9.132;2023-05-23T09:25:50;12.63;;;9.23;;
15693;SDS011;7947;48.834;9.132;2023-05-23T09:28:52;11.18;;;8.60;;
15693;SDS011;7947;48.834;9.132;2023-05-23T09:32:04;10.82;;;8.52;;
15693;SDS011;7947;48.834;9.132;2023-05-23T09:35:12;11.98;;;8.70;;
15693;SDS011;7947;48.834;9.132;2023-05-23T09:38:17;12.38;;;8.90;;
15693;SDS011;7947;48.834;9.132;2023-05-23T09:41:21;10.15;;;8.05;;
15693;SDS011;7947;48.834;9.132;2023-05-23T09:44:25;11.15;;;9.05;;
15693;SDS011;7947;48.834;9.132;2023-05-23T09:47:28;10.15;;;8.25;;
15693;SDS011;7947;48.834;9.132;2023-05-23T09:50:32;11.23;;;8.38;;
15693;SDS011;7947;48.834;9.132;2023-05-23T09:53:36;11.60;;;8.43;;
15693;SDS011;7947;48.834;9.132;2023-05-23T09:56:39;11.80;;;7.57;;
15693;SDS011;7947;48.834;9.132;2023-05-23T09:59:51;8.73;;;6.90;;
15693;SDS011;7947;48.834;9.132;2023-05-23T10:02:57;8.73;;;7.45;;
15693;SDS011;7947;48.834;9.132;2023-05-23T10:06:15;10.15;;;7.10;;
15693;SDS011;7947;48.834;9.132;2023-05-23T10:09:26;11.43;;;7.93;;
15693;SDS011;7947;48.834;9.132;2023-05-23T10:12:41;10.18;;;6.80;;
15693;SDS011;7947;48.834;9.132;2023-05-23T10:15:48;10.02;;;6.68;;
15693;SDS011;7947;48.834;9.132;2023-05-23T10:18:51;7.88;;;6.68;;
15693;SDS011;7947;48.834;9.132;2023-05-23T10:21:59;7.88;;;6.07;;
15693;SDS011;7947;48.834;9.132;2023-05-23T10:25:06;7.28;;;6.15;;
15693;SDS011;7947;48.834;9.132;2023-05-23T10:28:10;7.10;;;5.80;;
15693;SDS011;7947;48.834;9.132;2023-05-23T10:31:14;7.35;;;6.40;;
15693;SDS011;7947;48.834;9.132;2023-05-23T10:34:20;7.93;;;6.80;;
15693;SDS011;7947;48.834;9.132;2023-05-23T10:37:28;7.70;;;6.18;;
15693;SDS011;7947;48.834;9.132;2023-05-23T10:40:47;7.45;;;6.05;;
15693;SDS011;7947;48.834;9.132;2023-05-23T10:43:56;8.00;;;5.97;;
15693;SDS011;7947;48.834;9.132;2023-05-23T10:47:06;6.57;;;5.45;;
15693;SDS011;7947;48.834;9.132;2023-05-23T10:50:11;7.10;;;6.22;;
15693;SDS011;7947;48.834;9.132;2023-05-23T10:53:15;6.57;;;5.88;;
15693;SDS011;7947;48.834;9.132;2023-05-23T10:56:20;6.35;;;5.43;;
15693;SDS011;7947;48.834;9.132;2023-05-23T10:59:24;6.65;;;5.22;;
15693;SDS011;7947;48.834;9.132;2023-05-23T11:02:29;5.30;;;4.70;;
15693;SDS011;7947;48.834;9.132;2023-05-23T11:05:32;5.00;;;4.35;;
15693;SDS011;7947;48.834;9.132;2023-05-23T11:08:39;5.72;;;5.07;;
15693;SDS011;7947;48.834;9.132;2023-05-23T11:12:00;5.25;;;4.60;;
15693;SDS011;7947;48.834;9.132;2023-05-23T11:15:18;5.10;;;4.47;;
15693;SDS011;7947;48.834;9.132;2023-05-23T11:18:22;5.70;;;4.63;;
15693;SDS011;7947;48.834;9.132;2023-05-23T11:21:27;6.82;;;5.40;;
15693;SDS011;7947;48.834;9.132;2023-05-23T11:24:46;6.63;;;5.25;;
15693;SDS011;7947;48.834;9.132;2023-05-23T11:27:52;7.82;;;6.72;;
15693;SDS011;7947;48.834;9.132;2023-05-23T11:30:56;7.97;;;6.75;;
15693;SDS011;7947;48.834;9.132;2023-05-23T11:33:58;8.77;;;6.20;;
15693;SDS011;7947;48.834;9.132;2023-05-23T11:37:03;7.22;;;6.05;;
15693;SDS011;7947;48.834;9.132;2023-05-23T11:40:25;7.35;;;6.55;;
15693;SDS011;7947;48.834;9.132;2023-05-23T11:43:31;9.73;;;6.63;;
15693;SDS011;7947;48.834;9.132;2023-05-23T11:46:34;7.50;;;6.40;;
15693;SDS011;7947;48.834;9.132;2023-05-23T11:49:37;7.65;;;5.90;;
15693;SDS011;7947;48.834;9.132;2023-05-23T11:52:41;7.13;;;5.75;;
15693;SDS011;7947;48.834;9.132;2023-05-23T11:55:47;8.82;;;6.50;;
15693;SDS011;7947;48.834;9.132;2023-05-23T11:58:55;6.78;;;6.03;;
15693;SDS011;7947;48.834;9.132;2023-05-23T12:02:00;7.03;;;5.78;;
15693;SDS011;7947;48.834;9.132;2023-05-23T12:05:06;6.18;;;5.47;;
15693;SDS011;7947;48.834;9.132;2023-05-23T12:08:10;6.10;;;4.53;;
15693;SDS011;7947;48.834;9.132;2023-05-23T12:11:14;8.20;;;6.05;;
15693;SDS011;7947;48.834;9.132;2023-05-23T12:14:18;6.50;;;5.28;;
15693;SDS011;7947;48.834;9.132;2023-05-23T12:17:21;5.68;;;4.97;;
15693;SDS011;7947;48.834;9.132;2023-05-23T12:20:24;5.93;;;5.32;;
15693;SDS011;7947;48.834;9.132;2023-05-23T12:23:27;6.03;;;5.18;;
15693;SDS011;7947;48.834;9.132;2023-05-23T12:26:44;5.53;;;4.95;;
15693;SDS011;7947;48.834;9.132;2023-05-23T12:30:03;6.72;;;4.90;;
15693;SDS011;7947;48.834;9.132;2023-05-23T12:33:07;6.15;;;4.80;;
15693;SDS011;7947;48.834;9.132;2023-05-23T12:36:10;4.80;;;4.25;;
15693;SDS011;7947;48.834;9.132;2023-05-23T12:39:13;5.43;;;4.13;;
15693;SDS011;7947;48.834;9.132;2023-05-23T12:42:17;5.50;;;4.57;;
15693;SDS011;7947;48.834;9.132;2023-05-23T12:45:21;4.57;;;4.13;;
15693;SDS011;7947;48.834;9.132;2023-05-23T12:48:25;7.65;;;4.18;;
15693;SDS011;7947;48.834;9.132;2023-05-23T12:51:28;6.13;;;4.03;;
15693;SDS011;7947;48.834;9.132;2023-05-23T12:54:32;4.28;;;3.88;;
15693;SDS011;7947;48.834;9.132;2023-05-23T12:57:34;5.07;;;3.97;;
15693;SDS011;7947;48.834;9.132;2023-05-23T13:00:39;3.85;;;3.40;;
15693;SDS011;7947;48.834;9.132;2023-05-23T13:03:42;4.63;;;3.47;;
15693;SDS011;7947;48.834;9.132;2023-05-23T13:06:45;4.15;;;3.72;;
15693;SDS011;7947;48.834;9.132;2023-05-23T13:09:48;3.63;;;3.33;;
15693;SDS011;7947;48.834;9.132;2023-05-23T13:12:51;3.55;;;3.05;;
15693;SDS011;7947;48.834;9.132;2023-05-23T13:15:55;3.38;;;3.08;;
15693;SDS011;7947;48.834;9.132;2023-05-23T13:18:58;4.10;;;3.20;;
15693;SDS011;7947;48.834;9.132;2023-05-23T13:22:01;3.53;;;3.22;;
15693;SDS011;7947;48.834;9.132;2023-05-23T13:25:05;3.15;;;2.85;;
15693;SDS011;7947;48.834;9.132;2023-05-23T13:28:09;4.18;;;3.60;;
15693;SDS011;7947;48.834;9.132;2023-05-23T13:31:13;3.83;;;2.75;;
15693;SDS011;7947;48.834;9.132;2023-05-23T13:34:16;3.47;;;3.17;;
15693;SDS011;7947;48.834;9.132;2023-05-23T13:37:18;3.60;;;3.10;;
15693;SDS011;7947;48.834;9.132;2023-05-23T13:40:21;3.20;;;2.90;;
15693;SDS011;7947;48.834;9.132;2023-05-23T13:43:24;4.20;;;2.83;;
15693;SDS011;7947;48.834;9.132;2023-05-23T13:46:29;7.47;;;3.38;;
15693;SDS011;7947;48.834;9.132;2023-05-23T13:49:31;3.40;;;2.80;;
15693;SDS011;7947;48.834;9.132;2023-05-23T13:52:34;2.78;;;2.30;;
15693;SDS011;7947;48.834;9.132;2023-05-23T13:55:37;2.47;;;2.28;;
15693;SDS011;7947;48.834;9.132;2023-05-23T13:58:40;3.03;;;2.55;;
15693;SDS011;7947;48.834;9.132;2023-05-23T14:01:44;3.40;;;3.10;;
15693;SDS011;7947;48.834;9.132;2023-05-23T14:04:47;3.72;;;3.30;;
15693;SDS011;7947;48.834;9.132;2023-05-23T14:07:50;8.30;;;3.08;;
15693;SDS011;7947;48.834;9.132;2023-05-23T14:10:53;3.58;;;3.25;;
15693;SDS011;7947;48.834;9.132;2023-05-23T14:13:56;3.95;;;3.47;;
15693;SDS011;7947;48.834;9.132;2023-05-23T14:17:00;3.35;;;3.05;;
15693;SDS011;7947;48.834;9.132;2023-05-23T14:20:03;3.10;;;2.80;;
15693;SDS011;7947;48.834;9.132;2023-05-23T14:23:08;6.20;;;3.20;;
15693;SDS011;7947;48.834;9.132;2023-05-23T14:26:11;3.78;;;2.85;;
15693;SDS011;7947;48.834;9.132;2023-05-23T14:29:14;3.72;;;2.53;;
15693;SDS011;7947;48.834;9.132;2023-05-23T14:32:18;3.30;;;2.63;;
15693;SDS011;7947;48.834;9.132;2023-05-23T14:35:21;4.55;;;3.10;;
15693;SDS011;7947;48.834;9.132;2023-05-23T14:38:25;3.38;;;3.08;;
15693;SDS011;7947;48.834;9.132;2023-05-23T14:41:28;3.05;;;2.75;;
15693;SDS011;7947;48.834;9.132;2023-05-23T14:44:32;3.63;;;2.85;;
15693;SDS011;7947;48.834;9.132;2023-05-23T14:47:36;3.83;;;2.70;;
15693;SDS011;7947;48.834;9.132;2023-05-23T14:50:39;3.00;;;2.60;;
15693;SDS011;7947;48.834;9.132;2023-05-23T14:53:42;2.40;;;2.20;;
15693;SDS011;7947;48.834;9.132;2023-05-23T14:56:45;3.00;;;2.45;;
15693;SDS011;7947;48.834;9.132;2023-05-23T14:59:52;3.13;;;2.63;;
15693;SDS011;7947;48.834;9.132;2023-05-23T15:02:56;2.85;;;2.58;;
15693;SDS011;7947;48.834;9.132;2023-05-23T15:05:59;3.00;;;2.70;;
15693;SDS011;7947;48.834;9.132;2023-05-23T15:09:01;2.42;;;2.22;;
15693;SDS011;7947;48.834;9.132;2023-05-23T15:12:04;2.95;;;2.20;;
15693;SDS011;7947;48.834;9.132;2023-05-23T15:15:10;3.30;;;2.33;;
15693;SDS011;7947;48.834;9.132;2023-05-23T15:18:14;2.05;;;1.83;;
15693;SDS011;7947;48.834;9.132;2023-05-23T15:21:37;3.30;;;2.00;;
15693;SDS011;7947;48.834;9.132;2023-05-23T15:24:50;3.15;;;2.70;;
15693;SDS011;7947;48.834;9.132;2023-05-23T15:27:53;4.13;;;3.05;;
15693;SDS011;7947;48.834;9.132;2023-05-23T15:30:56;4.18;;;2.67;;
15693;SDS011;7947;48.834;9.132;2023-05-23T15:34:01;3.35;;;2.65;;
15693;SDS011;7947;48.834;9.132;2023-05-23T15:37:04;2.85;;;2.65;;
15693;SDS011;7947;48.834;9.132;2023-05-23T15:40:07;2.97;;;2.60;;
15693;SDS011;7947;48.834;9.132;2023-05-23T15:43:11;3.15;;;2.47;;
15693;SDS011;7947;48.834;9.132;2023-05-23T15:46:13;2.65;;;2.30;;
15693;SDS011;7947;48.834;9.132;2023-05-23T15:49:17;2.65;;;2.45;;
15693;SDS011;7947;48.834;9.132;2023-05-23T15:52:27;2.85;;;2.65;;
15693;SDS011;7947;48.834;9.132;2023-05-23T15:55:30;3.88;;;3.20;;
15693;SDS011;7947;48.834;9.132;2023-05-23T15:58:33;3.90;;;3.25;;
15693;SDS011;7947;48.834;9.132;2023-05-23T16:01:36;3.75;;;3.35;;
15693;SDS011;7947;48.834;9.132;2023-05-23T16:04:40;4.35;;;3.33;;
15693;SDS011;7947;48.834;9.132;2023-05-23T16:07:43;4.85;;;3.22;;
15693;SDS011;7947;48.834;9.132;2023-05-23T16:10:46;3.97;;;3.58;;
15693;SDS011;7947;48.834;9.132;2023-05-23T16:13:48;4.60;;;3.45;;
15693;SDS011;7947;48.834;9.132;2023-05-23T16:16:51;4.70;;;3.50;;
15693;SDS011;7947;48.834;9.132;2023-05-23T16:19:55;4.78;;;3.50;;
15693;SDS011;7947;48.834;9.132;2023-05-23T16:22:58;5.60;;;3.92;;
15693;SDS011;7947;48.834;9.132;2023-05-23T16:26:01;5.93;;;4.38;;
15693;SDS011;7947;48.834;9.132;2023-05-23T16:29:04;5.28;;;4.07;;
15693;SDS011;7947;48.834;9.132;2023-05-23T16:32:07;5.10;;;3.78;;
15693;SDS011;7947;48.834;9.132;2023-05-23T16:35:12;4.85;;;4.15;;
15693;SDS011;7947;48.834;9.132;2023-05-23T16:38:17;5.40;;;4.25;;
15693;SDS011;7947;48.834;9.132;2023-05-23T16:41:19;6.82;;;5.00;;
15693;SDS011;7947;48.834;9.132;2023-05-23T16:44:22;5.93;;;4.90;;
15693;SDS011;7947;48.834;9.132;2023-05-23T16:47:25;5.05;;;4.00;;
15693;SDS011;7947;48.834;9.132;2023-05-23T16:50:29;5.65;;;3.88;;
15693;SDS011;7947;48.834;9.132;2023-05-23T16:53:32;6.25;;;4.60;;
15693;SDS011;7947;48.834;9.132;2023-05-23T16:56:35;5.60;;;4.70;;
15693;SDS011;7947;48.834;9.132;2023-05-23T16:59:39;7.07;;;4.43;;
15693;SDS011;7947;48.834;9.132;2023-05-23T17:02:43;5.53;;;4.65;;
15693;SDS011;7947;48.834;9.132;2023-05-23T17:05:47;5.43;;;4.63;;
15693;SDS011;7947;48.834;9.132;2023-05-23T17:08:50;5.72;;;4.45;;
15693;SDS011;7947;48.834;9.132;2023-05-23T17:11:53;4.10;;;3.70;;
15693;SDS011;7947;48.834;9.132;2023-05-23T17:14:57;5.95;;;4.05;;
15693;SDS011;7947;48.834;9.132;2023-05-23T17:18:00;5.78;;;4.07;;
15693;SDS011;7947;48.834;9.132;2023-05-23T17:21:04;4.10;;;3.53;;
15693;SDS011;7947;48.834;9.132;2023-05-23T17:24:07;4.50;;;3.53;;
15693;SDS011;7947;48.834;9.132;2023-05-23T17:27:09;5.97;;;2.97;;
15693;SDS011;7947;48.834;9.132;2023-05-23T17:30:12;4.95;;;3.22;;
15693;SDS011;7947;48.834;9.132;2023-05-23T17:33:19;3.08;;;2.72;;
15693;SDS011;7947;48.834;9.132;2023-05-23T17:36:23;4.68;;;2.67;;
15693;SDS011;7947;48.834;9.132;2023-05-23T17:39:26;3.40;;;2.60;;
15693;SDS011;7947;48.834;9.132;2023-05-23T17:42:29;5.43;;;3.15;;
15693;SDS011;7947;48.834;9.132;2023-05-23T17:45:32;3.30;;;2.25;;
15693;SDS011;7947;48.834;9.132;2023-05-23T17:48:34;4.85;;;2.53;;
15693;SDS011;7947;48.834;9.132;2023-05-23T17:51:49;3.97;;;2.40;;
15693;SDS011;7947;48.834;9.132;2023-05-23T17:54:52;2.20;;;1.98;;
15693;SDS011;7947;48.834;9.132;2023-05-23T17:57:58;3.40;;;2.97;;
15693;SDS011;7947;48.834;9.132;2023-05-23T18:01:01;3.75;;;2.55;;
15693;SDS011;7947;48.834;9.132;2023-05-23T18:04:04;3.78;;;2.55;;
15693;SDS011;7947;48.834;9.132;2023-05-23T18:07:09;4.47;;;2.30;;
15693;SDS011;7947;48.834;9.132;2023-05-23T18:10:13;4.50;;;2.60;;
15693;SDS011;7947;48.834;9.132;2023-05-23T18:13:18;3.42;;;2.83;;
15693;SDS011;7947;48.834;9.132;2023-05-23T18:16:20;5.05;;;2.70;;
15693;SDS011;7947;48.834;9.132;2023-05-23T18:19:23;3.83;;;2.53;;
15693;SDS011;7947;48.834;9.132;2023-05-23T18:22:28;3.97;;;2.85;;
15693;SDS011;7947;48.834;9.132;2023-05-23T18:25:33;3.70;;;2.58;;
15693;SDS011;7947;48.834;9.132;2023-05-23T18:28:36;4.18;;;3.08;;
15693;SDS011;7947;48.834;9.132;2023-05-23T18:31:39;5.03;;;3.25;;
15693;SDS011;7947;48.834;9.132;2023-05-23T18:34:42;4.90;;;3.20;;